Time;durP1;ratioP1;P1;durP2;ratioP2;P2;SDS_P1;SDS_P2;PMS_P1;PMS_P2;Temp;Humidity;BMP_temperature;BMP_pressure;BME280_temperature;BME280_humidity;BME280_pressure;Samples;Min_cycle;Max_cycle;Signal;HPM_P1;HPM_P2
2023/11/09 00:00:45;;;;;;;4.22;1.00;;;9.80;99.90;;;;;;4952556;28;20049;-76
2023/11/09 00:03:31;;;;;;;4.20;1.20;;;9.80;99.90;;;;;;4978775;28;20662;-76
2023/11/09 00:06:18;;;;;;;1.77;0.98;;;9.80;99.90;;;;;;4972653;28;20077;-77
2023/11/09 00:09:04;;;;;;;4.63;1.73;;;9.80;99.90;;;;;;4960753;28;20119;-76
2023/11/09 00:11:50;;;;;;;2.88;1.08;;;9.90;99.90;;;;;;4979133;28;20038;-76
2023/11/09 00:14:36;;;;;;;6.18;1.20;;;9.90;99.90;;;;;;4977000;28;20077;-75
2023/11/09 00:17:23;;;;;;;4.72;1.17;;;9.90;99.90;;;;;;4979039;28;20046;-76
2023/11/09 00:20:10;;;;;;;2.72;1.35;;;9.80;99.90;;;;;;4955477;28;20129;-76
2023/11/09 00:23:02;;;;;;;2.83;1.00;;;9.90;99.90;;;;;;4992290;28;20765;-75
2023/11/09 00:25:48;;;;;;;1.80;1.00;;;9.90;99.90;;;;;;4963933;28;20047;-75
2023/11/09 00:28:34;;;;;;;4.78;1.20;;;9.90;99.90;;;;;;4969087;28;20034;-76
2023/11/09 00:31:22;;;;;;;5.40;1.00;;;9.90;99.90;;;;;;4979200;28;20061;-76
2023/11/09 00:34:10;;;;;;;4.32;1.65;;;9.90;99.90;;;;;;4956529;28;20069;-75
2023/11/09 00:36:56;;;;;;;;;;;9.90;99.90;;;;;;4953188;28;20430;-76
2023/11/09 00:39:47;;;;;;;4.60;1.23;;;9.90;99.90;;;;;;4975395;28;19928;-75
2023/11/09 00:42:33;;;;;;;2.20;0.90;;;9.90;99.90;;;;;;4979048;28;20038;-74
2023/11/09 00:45:22;;;;;;;3.88;1.30;;;9.90;99.90;;;;;;4964852;28;20102;-76
2023/11/09 00:48:10;;;;;;;2.00;1.00;;;9.90;99.90;;;;;;4990107;28;20066;-76
2023/11/09 00:50:57;;;;;;;3.47;1.02;;;9.90;99.90;;;;;;4970405;28;20526;-76
2023/11/09 00:53:43;;;;;;;2.33;1.17;;;9.90;99.90;;;;;;4978395;28;20057;-76
2023/11/09 00:56:29;;;;;;;3.47;1.13;;;9.90;99.90;;;;;;4972187;28;20096;-76
2023/11/09 00:59:18;;;;;;;2.60;1.02;;;9.90;99.90;;;;;;4979754;28;20042;-76
2023/11/09 01:02:05;;;;;;;2.50;1.23;;;9.90;99.90;;;;;;4981416;28;20042;-75
2023/11/09 01:04:55;;;;;;;3.45;1.10;;;9.90;99.90;;;;;;4959039;28;20047;-76
2023/11/09 01:07:41;;;;;;;3.20;1.10;;;9.90;99.90;;;;;;4973288;28;20068;-75
2023/11/09 01:10:27;;;;;;;3.50;1.30;;;9.90;99.90;;;;;;5005723;28;20105;-76
2023/11/09 01:13:13;;;;;;;2.42;1.00;;;9.90;99.90;;;;;;4979007;28;20414;-76
2023/11/09 01:16:01;;;;;;;2.13;1.00;;;9.90;99.90;;;;;;4978316;28;20108;-75
2023/11/09 01:18:47;;;;;;;4.22;1.25;;;9.90;99.90;;;;;;4975748;28;20070;-75
2023/11/09 01:21:34;;;;;;;2.58;1.30;;;9.80;99.90;;;;;;4950634;28;20062;-74
2023/11/09 01:24:20;;;;;;;2.78;1.13;;;9.80;99.90;;;;;;4980020;28;20049;-76
2023/11/09 01:27:07;;;;;;;2.90;1.20;;;9.80;99.90;;;;;;4978977;28;20056;-76
2023/11/09 01:29:53;;;;;;;2.22;1.00;;;9.70;99.90;;;;;;4973547;28;20069;-75
2023/11/09 01:32:39;;;;;;;3.08;1.08;;;9.60;99.90;;;;;;4993104;28;20042;-76
2023/11/09 01:35:25;;;;;;;2.55;1.13;;;9.70;99.90;;;;;;4969614;28;20066;-76
2023/11/09 01:38:11;;;;;;;1.83;1.10;;;9.70;99.90;;;;;;4966651;28;20081;-73
2023/11/09 01:40:57;;;;;;;5.32;1.10;;;9.60;99.90;;;;;;4979873;28;20393;-75
2023/11/09 01:43:54;;;;;;;2.08;1.00;;;9.60;99.90;;;;;;4981525;28;20129;-76
2023/11/09 01:46:42;;;;;;;3.00;1.23;;;9.50;99.90;;;;;;4992148;28;20085;-75
2023/11/09 01:49:30;;;;;;;3.10;1.30;;;9.50;99.90;;;;;;4972709;28;20126;-75
2023/11/09 01:52:25;;;;;;;3.58;1.50;;;9.50;99.90;;;;;;4978251;28;20043;-75
2023/11/09 01:55:12;;;;;;;5.57;1.20;;;9.50;99.90;;;;;;4962227;28;20054;-76
2023/11/09 01:57:58;;;;;;;3.50;1.40;;;9.50;99.90;;;;;;4983381;28;20129;-75
2023/11/09 02:00:44;;;;;;;2.92;1.20;;;9.50;99.90;;;;;;4964433;28;20038;-76
2023/11/09 02:03:31;;;;;;;3.65;1.20;;;9.40;99.90;;;;;;4978367;28;20039;-74
2023/11/09 02:06:18;;;;;;;6.63;1.73;;;9.40;99.90;;;;;;4983334;28;20039;-75
2023/11/09 02:09:04;;;;;;;3.25;1.20;;;9.40;99.90;;;;;;4978380;28;20042;-75
2023/11/09 02:11:50;;;;;;;4.43;1.17;;;9.40;99.90;;;;;;4969148;28;20439;-77
2023/11/09 02:14:36;;;;;;;3.55;1.23;;;9.40;99.90;;;;;;4991758;28;20085;-76
2023/11/09 02:17:22;;;;;;;5.03;1.67;;;9.40;99.90;;;;;;4980337;28;20077;-76
2023/11/09 02:20:12;;;;;;;6.93;1.17;;;9.40;99.90;;;;;;4960758;28;20042;-76
2023/11/09 02:22:59;;;;;;;3.30;1.77;;;9.40;99.90;;;;;;4956459;28;20212;-76
2023/11/09 02:25:45;;;;;;;3.15;1.05;;;9.40;99.90;;;;;;4960979;28;20046;-76
2023/11/09 02:28:32;;;;;;;2.53;1.20;;;9.40;99.90;;;;;;4954802;28;20031;-75
2023/11/09 02:31:18;;;;;;;2.70;1.10;;;9.40;99.90;;;;;;4976877;28;20035;-75
2023/11/09 02:34:04;;;;;;;4.18;1.17;;;9.30;99.90;;;;;;4948081;28;20050;-76
2023/11/09 02:36:52;;;;;;;3.70;1.35;;;9.30;99.90;;;;;;4974642;28;20646;-75
2023/11/09 02:39:38;;;;;;;3.50;1.20;;;9.40;99.90;;;;;;4955828;28;20065;-75
2023/11/09 02:42:24;;;;;;;3.08;1.08;;;9.40;99.90;;;;;;4976655;28;20081;-75
2023/11/09 02:45:10;;;;;;;3.72;1.13;;;9.30;99.90;;;;;;4965484;28;20113;-75
2023/11/09 02:47:56;;;;;;;2.60;1.27;;;9.40;99.90;;;;;;4981735;28;20174;-75
2023/11/09 02:50:42;;;;;;;2.42;1.10;;;9.30;99.90;;;;;;4943314;29;20421;-75
2023/11/09 02:53:28;;;;;;;4.05;1.30;;;9.30;99.90;;;;;;4975350;28;20595;-75
2023/11/09 02:56:14;;;;;;;3.03;1.23;;;9.30;99.90;;;;;;4962404;28;20057;-75
2023/11/09 02:59:00;;;;;;;2.72;1.10;;;9.30;99.90;;;;;;4969726;28;20125;-76
2023/11/09 03:01:47;;;;;;;4.13;1.10;;;9.30;99.90;;;;;;4971332;28;20061;-76
2023/11/09 03:04:34;;;;;;;3.95;1.00;;;9.30;99.90;;;;;;4973453;28;20121;-76
2023/11/09 03:07:20;;;;;;;2.40;1.55;;;9.30;99.90;;;;;;4961189;28;20042;-76
2023/11/09 03:10:09;;;;;;;3.58;1.08;;;9.40;99.90;;;;;;4953975;28;20039;-75
2023/11/09 03:13:00;;;;;;;1.98;1.40;;;9.30;99.90;;;;;;4944781;29;20105;-75
2023/11/09 03:15:47;;;;;;;6.38;1.65;;;9.40;99.90;;;;;;4949671;28;20538;-75
2023/11/09 03:18:33;;;;;;;4.05;1.10;;;9.40;99.90;;;;;;4949962;28;20611;-75
2023/11/09 03:21:19;;;;;;;3.67;1.65;;;9.30;99.90;;;;;;4972255;28;20627;-75
2023/11/09 03:24:05;;;;;;;2.58;1.00;;;9.30;99.90;;;;;;4961386;28;20053;-76
2023/11/09 03:26:52;;;;;;;5.90;1.38;;;9.30;99.90;;;;;;4969695;28;20046;-75
2023/11/09 03:29:38;;;;;;;6.60;1.10;;;9.40;99.90;;;;;;4981688;28;20077;-76
2023/11/09 03:32:24;;;;;;;3.90;1.27;;;9.40;99.90;;;;;;4969371;28;20038;-75
2023/11/09 03:35:12;;;;;;;2.35;1.00;;;9.40;99.90;;;;;;4983413;28;20113;-76
2023/11/09 03:37:58;;;;;;;6.05;1.02;;;9.40;99.90;;;;;;4977577;28;20045;-76
2023/11/09 03:40:44;;;;;;;4.90;1.20;;;9.40;99.90;;;;;;4969279;28;20447;-76
2023/11/09 03:43:30;;;;;;;1.90;1.00;;;9.40;99.90;;;;;;4969114;28;20483;-76
2023/11/09 03:46:16;;;;;;;1.90;0.90;;;9.40;99.90;;;;;;4982223;28;20266;-75
2023/11/09 03:49:02;;;;;;;1.52;0.90;;;9.40;99.90;;;;;;4978569;28;20460;-75
2023/11/09 03:51:48;;;;;;;4.18;1.10;;;9.40;99.90;;;;;;4994232;28;20053;-75
2023/11/09 03:54:34;;;;;;;2.42;0.82;;;9.40;99.90;;;;;;4998596;28;20367;-75
2023/11/09 03:57:21;;;;;;;2.15;0.98;;;9.40;99.90;;;;;;4976903;28;20860;-76
2023/11/09 04:00:13;;;;;;;1.60;0.80;;;9.40;99.90;;;;;;4968546;28;20101;-75
2023/11/09 04:03:00;;;;;;;3.25;1.00;;;9.30;99.90;;;;;;4958109;28;20121;-76
2023/11/09 04:05:47;;;;;;;3.00;1.38;;;9.30;99.90;;;;;;4985016;28;20117;-76
2023/11/09 04:08:33;;;;;;;2.33;0.88;;;9.40;99.90;;;;;;4960845;28;20045;-76
2023/11/09 04:11:20;;;;;;;3.35;1.00;;;9.40;99.90;;;;;;4992580;28;20045;-75
2023/11/09 04:14:09;;;;;;;2.38;0.90;;;9.40;99.90;;;;;;4948993;28;20038;-76
2023/11/09 04:16:55;;;;;;;4.57;1.00;;;9.40;99.90;;;;;;4972780;28;20057;-75
2023/11/09 04:19:42;;;;;;;2.85;1.00;;;9.40;99.90;;;;;;4985471;28;20101;-75
2023/11/09 04:22:28;;;;;;;4.03;1.10;;;9.30;99.90;;;;;;4970242;28;20045;-76
2023/11/09 04:25:14;;;;;;;3.03;1.00;;;9.40;99.90;;;;;;4985909;28;20052;-75
2023/11/09 04:28:00;;;;;;;3.85;0.88;;;9.30;99.90;;;;;;4963362;28;20496;-76
2023/11/09 04:30:51;;;;;;;2.33;0.90;;;9.40;99.90;;;;;;4980135;28;20050;-75
2023/11/09 04:33:37;;;;;;;4.47;1.30;;;9.40;99.90;;;;;;4967329;28;20049;-76
2023/11/09 04:36:23;;;;;;;3.67;1.40;;;9.30;99.90;;;;;;4969360;28;20043;-76
2023/11/09 04:39:10;;;;;;;4.75;1.08;;;9.30;99.90;;;;;;4967308;28;20065;-76
2023/11/09 04:41:57;;;;;;;4.18;1.20;;;9.30;99.90;;;;;;4980416;28;20077;-75
2023/11/09 04:44:46;;;;;;;4.22;1.23;;;9.20;99.90;;;;;;4985492;28;20060;-75
2023/11/09 04:47:32;;;;;;;2.65;1.10;;;9.20;99.90;;;;;;4993748;28;20426;-75
2023/11/09 04:50:27;;;;;;;2.67;1.08;;;9.20;99.90;;;;;;4963420;28;20109;-75
2023/11/09 04:53:30;;;;;;;3.45;1.10;;;9.20;99.90;;;;;;4979803;28;20108;-75
2023/11/09 05:08:21;;;;;;;2.67;1.40;;;9.10;99.90;;;;;;4984015;28;20042;-76
2023/11/09 05:11:11;;;;;;;2.88;1.20;;;9.10;99.90;;;;;;4978878;28;20042;-76
2023/11/09 05:13:57;;;;;;;4.32;1.83;;;9.00;99.90;;;;;;4980608;28;20057;-75
2023/11/09 05:16:43;;;;;;;4.35;1.30;;;9.10;99.90;;;;;;4984864;28;20046;-75
2023/11/09 05:19:29;;;;;;;4.18;1.33;;;9.10;99.90;;;;;;4970670;28;20038;-75
2023/11/09 05:22:17;;;;;;;4.13;1.20;;;9.10;99.90;;;;;;4992532;28;20065;-75
2023/11/09 05:25:04;;;;;;;3.47;1.30;;;9.00;99.90;;;;;;4967183;28;20053;-75
2023/11/09 05:27:50;;;;;;;3.55;1.30;;;9.10;99.90;;;;;;4978770;28;20045;-75
2023/11/09 05:30:36;;;;;;;5.88;1.60;;;9.10;99.90;;;;;;4980289;28;20030;-75
2023/11/09 05:33:23;;;;;;;2.05;1.20;;;9.10;99.90;;;;;;4984191;28;20042;-75
2023/11/09 05:36:09;;;;;;;2.97;1.40;;;9.00;99.90;;;;;;4996106;28;20038;-75
2023/11/09 05:38:55;;;;;;;2.90;1.30;;;9.10;99.90;;;;;;4970234;28;20104;-75
2023/11/09 05:41:43;;;;;;;4.88;1.40;;;9.10;99.90;;;;;;4976610;28;20038;-75
2023/11/09 05:44:29;;;;;;;3.95;1.77;;;9.10;99.90;;;;;;4966111;28;20085;-75
2023/11/09 05:47:15;;;;;;;2.45;1.40;;;9.10;99.90;;;;;;4962118;28;20096;-75
2023/11/09 05:50:02;;;;;;;4.57;1.27;;;9.10;99.90;;;;;;4969517;28;20034;-75
2023/11/09 05:52:48;;;;;;;5.25;1.55;;;9.10;99.90;;;;;;4983834;28;20049;-75
2023/11/09 05:55:34;;;;;;;2.78;1.25;;;9.10;99.90;;;;;;4983176;28;20057;-75
2023/11/09 05:58:20;;;;;;;4.30;1.80;;;9.10;99.90;;;;;;4983364;28;20347;-75
2023/11/09 06:01:06;;;;;;;3.90;1.30;;;9.10;99.90;;;;;;4984419;28;20052;-75
2023/11/09 06:03:54;;;;;;;4.45;1.13;;;9.10;99.90;;;;;;4982737;28;20050;-75
2023/11/09 06:06:43;;;;;;;1.85;1.15;;;9.20;99.90;;;;;;4984611;28;20050;-75
2023/11/09 06:09:30;;;;;;;3.85;1.33;;;9.20;99.90;;;;;;4983200;28;20088;-75
2023/11/09 06:12:17;;;;;;;1.88;1.20;;;9.10;99.90;;;;;;4971544;28;20128;-75
2023/11/09 06:15:03;;;;;;;3.50;1.15;;;9.20;99.90;;;;;;4969174;28;20050;-75
2023/11/09 06:17:49;;;;;;;4.43;1.55;;;9.20;99.90;;;;;;4994010;28;20097;-75
2023/11/09 06:20:36;;;;;;;3.95;1.30;;;9.20;99.90;;;;;;4951631;28;20043;-75
2023/11/09 06:23:22;;;;;;;3.70;1.33;;;9.20;99.90;;;;;;4976584;28;20066;-75
2023/11/09 06:26:08;;;;;;;3.33;1.25;;;9.20;99.90;;;;;;4985183;28;20053;-75
2023/11/09 06:28:55;;;;;;;4.28;2.47;;;9.30;99.90;;;;;;4988994;28;20038;-75
2023/11/09 06:31:43;;;;;;;2.78;1.30;;;9.30;99.90;;;;;;4977021;28;20054;-75
2023/11/09 06:34:29;;;;;;;3.92;1.40;;;9.30;99.90;;;;;;4996193;28;20154;-75
2023/11/09 06:37:15;;;;;;;3.53;1.48;;;9.30;99.90;;;;;;5009708;28;20038;-75
2023/11/09 06:40:10;;;;;;;3.05;1.30;;;9.30;99.90;;;;;;4967879;28;20486;-75
2023/11/09 06:43:03;;;;;;;4.43;1.42;;;9.40;99.90;;;;;;4982085;28;20502;-75
2023/11/09 06:45:49;;;;;;;4.18;1.52;;;9.30;99.90;;;;;;4963839;28;20035;-74
2023/11/09 06:48:35;;;;;;;3.45;1.10;;;9.30;99.90;;;;;;4963074;28;20794;-75
2023/11/09 06:51:21;;;;;;;4.07;1.33;;;9.40;99.90;;;;;;4994723;28;20050;-75
2023/11/09 06:54:07;;;;;;;3.97;1.35;;;9.40;99.90;;;;;;4975798;28;20121;-75
2023/11/09 06:56:53;;;;;;;4.22;1.42;;;9.50;99.90;;;;;;4980737;28;20049;-75
2023/11/09 06:59:40;;;;;;;6.60;1.50;;;9.50;99.90;;;;;;4995912;28;20035;-75
2023/11/09 07:02:26;;;;;;;2.45;1.10;;;9.50;99.90;;;;;;4966205;28;20046;-76
2023/11/09 07:05:13;;;;;;;3.85;1.35;;;9.50;99.90;;;;;;4982118;28;20097;-76
2023/11/09 07:08:00;;;;;;;5.57;1.77;;;9.50;99.90;;;;;;4968971;28;20046;-76
2023/11/09 07:10:46;;;;;;;5.03;1.10;;;9.50;99.90;;;;;;4982557;28;20324;-76
2023/11/09 07:13:32;;;;;;;4.97;1.67;;;9.60;99.90;;;;;;4980475;28;20038;-76
2023/11/09 07:16:18;;;;;;;6.88;1.98;;;9.60;99.90;;;;;;4976693;28;20039;-76
2023/11/09 07:19:04;;;;;;;3.55;1.45;;;9.60;99.90;;;;;;4969961;28;20048;-75
2023/11/09 07:21:50;;;;;;;4.85;1.20;;;9.60;99.90;;;;;;4997781;28;20124;-75
2023/11/09 07:24:39;;;;;;;3.10;1.23;;;9.60;99.90;;;;;;4968117;28;20128;-75
2023/11/09 07:27:25;;;;;;;3.20;1.10;;;9.60;99.90;;;;;;4982050;28;20340;-75
2023/11/09 07:30:11;;;;;;;3.58;1.30;;;9.60;99.90;;;;;;4981225;28;20121;-75
2023/11/09 07:32:59;;;;;;;4.43;1.50;;;9.70;99.90;;;;;;4969176;28;20097;-75
2023/11/09 07:35:45;;;;;;;1.60;0.95;;;9.70;99.90;;;;;;4982189;28;20501;-75
2023/11/09 07:38:31;;;;;;;3.65;1.40;;;9.70;99.90;;;;;;4994723;28;20042;-76
2023/11/09 07:41:17;;;;;;;2.75;1.10;;;9.70;99.90;;;;;;4981168;28;20035;-76
2023/11/09 07:44:03;;;;;;;4.88;1.50;;;9.70;99.90;;;;;;4982768;28;20486;-76
2023/11/09 07:46:49;;;;;;;2.42;1.35;;;9.80;99.90;;;;;;5008057;28;20046;-76
2023/11/09 07:49:36;;;;;;;3.83;1.60;;;9.80;99.90;;;;;;4988756;28;20042;-75
2023/11/09 07:52:22;;;;;;;4.30;1.38;;;9.80;99.90;;;;;;4982334;28;20046;-76
2023/11/09 07:55:10;;;;;;;4.80;1.38;;;9.80;99.90;;;;;;4982280;28;20088;-76
2023/11/09 07:58:02;;;;;;;4.25;1.50;;;9.80;99.90;;;;;;4980831;28;20073;-76
2023/11/09 08:00:51;;;;;;;3.08;1.55;;;9.80;99.90;;;;;;4957955;28;20138;-76
2023/11/09 08:03:39;;;;;;;4.88;1.40;;;9.80;99.90;;;;;;4967464;28;20478;-76
2023/11/09 08:06:26;;;;;;;7.40;1.47;;;9.90;99.90;;;;;;4970283;28;20135;-75
2023/11/09 08:09:15;;;;;;;3.30;1.38;;;9.90;99.90;;;;;;4966494;28;20351;-75
2023/11/09 08:12:01;;;;;;;5.65;2.97;;;9.90;99.90;;;;;;4967600;28;20065;-75
2023/11/09 08:14:47;;;;;;;2.85;1.58;;;9.90;99.90;;;;;;4961625;28;20062;-75
2023/11/09 08:17:33;;;;;;;2.65;1.50;;;9.90;99.90;;;;;;4977715;28;20038;-75
2023/11/09 08:20:20;;;;;;;3.55;1.30;;;10.00;99.90;;;;;;4976043;28;20038;-76
2023/11/09 08:23:08;;;;;;;2.45;1.20;;;10.00;99.90;;;;;;4980750;28;20046;-76
2023/11/09 08:25:54;;;;;;;2.55;1.30;;;10.00;99.90;;;;;;4981095;28;20033;-75
2023/11/09 08:28:40;;;;;;;4.38;1.55;;;10.00;99.90;;;;;;4974217;28;20034;-75
2023/11/09 08:31:26;;;;;;;3.78;1.50;;;10.00;99.90;;;;;;4994724;28;20031;-76
2023/11/09 08:34:12;;;;;;;2.40;1.40;;;10.00;99.90;;;;;;4967810;28;20510;-76
2023/11/09 08:36:59;;;;;;;3.15;1.35;;;10.10;99.90;;;;;;4981333;28;20137;-76
2023/11/09 08:39:48;;;;;;;3.47;1.25;;;10.10;99.90;;;;;;4982026;28;20043;-76
2023/11/09 08:42:34;;;;;;;2.92;1.55;;;10.10;99.90;;;;;;4966679;28;20046;-76
2023/11/09 08:45:28;;;;;;;5.28;1.60;;;10.10;99.90;;;;;;4979838;28;20494;-76
2023/11/09 08:48:14;;;;;;;4.10;1.35;;;10.20;99.90;;;;;;4962115;28;20045;-76
2023/11/09 08:51:01;;;;;;;3.65;1.38;;;10.10;99.90;;;;;;4989056;28;20038;-76
2023/11/09 08:53:47;;;;;;;5.40;1.30;;;10.20;99.90;;;;;;4970681;28;20470;-76
2023/11/09 08:56:38;;;;;;;4.05;1.48;;;10.20;99.90;;;;;;4982002;28;20042;-76
2023/11/09 08:59:24;;;;;;;2.17;1.30;;;10.20;99.90;;;;;;4979090;28;20506;-75
2023/11/09 09:02:10;;;;;;;3.42;1.58;;;10.20;99.90;;;;;;4993990;28;20038;-76
2023/11/09 09:04:56;;;;;;;8.85;1.95;;;10.20;99.90;;;;;;4980174;28;20081;-76
2023/11/09 09:07:42;;;;;;;6.03;1.55;;;10.20;99.90;;;;;;4963421;28;20034;-76
2023/11/09 09:10:29;;;;;;;2.33;1.27;;;10.20;99.90;;;;;;4973392;28;20065;-76
2023/11/09 09:13:15;;;;;;;3.15;1.90;;;10.20;99.90;;;;;;4966470;28;20046;-76
2023/11/09 09:16:01;;;;;;;4.97;1.45;;;10.20;99.90;;;;;;4947168;28;20038;-75
2023/11/09 09:18:47;;;;;;;3.00;1.52;;;10.20;99.90;;;;;;4978645;28;20053;-76
2023/11/09 09:21:33;;;;;;;1.70;1.00;;;10.20;99.90;;;;;;4978133;28;20068;-75
2023/11/09 09:24:19;;;;;;;3.25;1.30;;;10.20;99.90;;;;;;4974168;28;20050;-76
2023/11/09 09:27:06;;;;;;;3.65;1.33;;;10.20;99.90;;;;;;4972948;28;20104;-75
2023/11/09 09:29:52;;;;;;;2.33;1.02;;;10.20;99.90;;;;;;4982168;28;20030;-75
2023/11/09 09:32:41;;;;;;;3.38;1.60;;;10.20;99.90;;;;;;4985848;28;20070;-75
2023/11/09 09:35:30;;;;;;;2.17;1.15;;;10.20;99.90;;;;;;4980389;28;20041;-75
2023/11/09 09:38:16;;;;;;;2.05;1.20;;;10.10;99.90;;;;;;4961990;28;20678;-75
2023/11/09 09:41:05;;;;;;;6.47;1.33;;;10.10;99.90;;;;;;4979969;28;20038;-75
2023/11/09 09:43:51;;;;;;;3.85;1.10;;;10.10;99.90;;;;;;4979975;28;20042;-75
2023/11/09 09:46:38;;;;;;;2.33;1.10;;;10.10;99.90;;;;;;4980007;28;20074;-75
2023/11/09 09:49:25;;;;;;;4.47;1.38;;;10.00;99.90;;;;;;4981331;28;20211;-75
2023/11/09 09:52:11;;;;;;;4.65;1.48;;;10.00;99.90;;;;;;4978652;28;20042;-75
2023/11/09 09:54:58;;;;;;;5.53;1.40;;;10.00;99.90;;;;;;4986789;28;20053;-75
2023/11/09 09:57:45;;;;;;;2.90;1.40;;;9.90;99.90;;;;;;4983156;28;20088;-75
2023/11/09 10:00:31;;;;;;;3.53;1.25;;;9.80;99.90;;;;;;4969136;28;20475;-75
2023/11/09 10:03:19;;;;;;;3.50;1.27;;;9.80;99.90;;;;;;4981055;28;20051;-75
2023/11/09 10:06:06;;;;;;;2.15;1.05;;;9.80;99.90;;;;;;4959064;28;20030;-77
2023/11/09 10:08:52;;;;;;;4.28;1.58;;;9.70;99.90;;;;;;4980865;28;20125;-76
2023/11/09 10:11:38;;;;;;;3.13;1.58;;;9.70;99.90;;;;;;4980731;28;20061;-76
2023/11/09 10:14:26;;;;;;;4.15;2.03;;;9.60;99.90;;;;;;4980407;28;20610;-75
2023/11/09 10:17:12;;;;;;;4.13;1.50;;;9.60;99.90;;;;;;4981838;28;20046;-75
2023/11/09 10:19:58;;;;;;;3.38;1.20;;;9.60;99.90;;;;;;4979579;28;20038;-75
2023/11/09 10:22:44;;;;;;;2.92;1.42;;;9.50;99.90;;;;;;4998367;28;20110;-75
2023/11/09 10:25:31;;;;;;;3.25;1.30;;;9.60;99.90;;;;;;4982924;28;20054;-74
2023/11/09 10:28:21;;;;;;;4.53;1.83;;;9.60;99.90;;;;;;4967489;28;20055;-76
2023/11/09 10:31:07;;;;;;;3.25;1.90;;;9.50;99.90;;;;;;5003986;28;20077;-76
2023/11/09 10:33:54;;;;;;;5.65;1.73;;;9.50;99.90;;;;;;4952746;28;20490;-76
2023/11/09 10:36:46;;;;;;;3.83;2.25;;;9.50;99.90;;;;;;4983708;28;20073;-76
2023/11/09 10:39:32;;;;;;;3.35;1.40;;;9.50;99.90;;;;;;4982732;28;20034;-76
2023/11/09 10:42:19;;;;;;;2.90;1.45;;;9.50;99.90;;;;;;4977635;28;20042;-76
2023/11/09 10:45:10;;;;;;;4.37;1.43;;;9.50;99.90;;;;;;5002179;28;20031;-75
2023/11/09 10:47:59;;;;;;;3.58;1.25;;;9.50;99.90;;;;;;4979857;28;20077;-76
2023/11/09 10:50:47;;;;;;;3.08;1.58;;;9.60;99.90;;;;;;4982735;28;20084;-76
2023/11/09 10:53:33;;;;;;;4.50;1.75;;;9.50;99.90;;;;;;4950313;28;20038;-76
2023/11/09 10:56:21;;;;;;;4.10;1.50;;;9.50;99.90;;;;;;4978184;28;20051;-76
2023/11/09 10:59:10;;;;;;;4.43;1.30;;;9.50;99.90;;;;;;4992770;28;20042;-76
2023/11/09 11:02:01;;;;;;;1.90;1.20;;;9.50;99.90;;;;;;4975341;28;20379;-76
2023/11/09 11:04:50;;;;;;;3.58;1.33;;;9.50;99.90;;;;;;4994452;28;20068;-76
2023/11/09 11:07:39;;;;;;;1.98;1.15;;;9.50;99.90;;;;;;4973691;28;20031;-76
2023/11/09 11:10:27;;;;;;;3.33;1.30;;;9.60;99.90;;;;;;4982535;28;20034;-76
2023/11/09 11:13:16;;;;;;;4.27;1.17;;;9.60;99.90;;;;;;4982768;28;20415;-76
2023/11/09 11:16:26;;;;;;;2.65;1.33;;;9.70;99.90;;;;;;4980828;28;20125;-76
2023/11/09 11:20:03;;;;;;;4.60;1.40;;;9.70;99.90;;;;;;4977772;28;20050;-76
2023/11/09 11:22:58;;;;;;;3.15;1.55;;;9.70;99.90;;;;;;4946930;28;20196;-74
2023/11/09 11:26:10;;;;;;;2.17;1.23;;;9.80;99.90;;;;;;4933350;29;20477;-77
2023/11/09 11:28:56;;;;;;;1.73;1.10;;;9.80;99.90;;;;;;4969405;28;20065;-77
2023/11/09 11:31:42;;;;;;;3.53;1.15;;;9.80;99.90;;;;;;4991382;28;20046;-76
2023/11/09 11:34:49;;;;;;;3.70;1.20;;;9.80;99.90;;;;;;4966526;28;20038;-76
2023/11/09 11:37:36;;;;;;;3.28;1.33;;;9.80;99.90;;;;;;4984357;28;20048;-77
2023/11/09 11:40:21;;;;;;;5.03;1.20;;;9.80;99.90;;;;;;4988652;28;20038;-76
2023/11/09 11:43:08;;;;;;;4.05;1.20;;;9.90;99.90;;;;;;4976583;28;20057;-76
2023/11/09 11:45:55;;;;;;;3.40;1.30;;;9.90;99.90;;;;;;4962099;28;20492;-76
2023/11/09 11:48:44;;;;;;;3.10;1.60;;;9.90;99.90;;;;;;4976021;28;20042;-76
2023/11/09 11:51:32;;;;;;;3.42;1.83;;;9.90;99.90;;;;;;5013014;28;20034;-77
2023/11/09 11:54:18;;;;;;;4.23;1.40;;;10.00;99.90;;;;;;4982555;28;20442;-77
2023/11/09 11:57:04;;;;;;;2.95;1.20;;;10.00;99.90;;;;;;5001245;28;20095;-76
2023/11/09 12:00:18;;;;;;;3.92;1.73;;;10.00;99.90;;;;;;4977826;28;20050;-76
2023/11/09 12:03:04;;;;;;;4.72;2.00;;;10.00;99.90;;;;;;4988545;28;21981;-74
2023/11/09 12:05:56;;;;;;;4.47;2.08;;;10.00;99.90;;;;;;4970004;28;20072;-75
2023/11/09 12:08:43;;;;;;;4.38;2.22;;;10.00;99.90;;;;;;4997090;28;20053;-75
2023/11/09 12:11:33;;;;;;;6.68;2.25;;;10.00;99.90;;;;;;4982055;28;20556;-75
2023/11/09 12:14:20;;;;;;;7.15;2.55;;;10.10;99.90;;;;;;4960425;28;20038;-74
2023/11/09 12:17:06;;;;;;;5.18;2.30;;;10.00;99.90;;;;;;4986630;28;20050;-75
2023/11/09 12:19:53;;;;;;;4.47;2.00;;;10.10;99.90;;;;;;4982861;28;20141;-74
2023/11/09 12:22:39;;;;;;;5.68;1.80;;;10.10;99.90;;;;;;4980080;28;20069;-76
2023/11/09 12:25:28;;;;;;;4.72;2.22;;;10.10;99.90;;;;;;4978884;28;20055;-75
2023/11/09 12:28:15;;;;;;;4.00;2.00;;;10.10;99.90;;;;;;4974414;28;20049;-75
2023/11/09 12:31:02;;;;;;;2.60;1.60;;;10.10;99.90;;;;;;4974088;28;20460;-75
2023/11/09 12:34:09;;;;;;;9.35;3.40;;;10.10;99.90;;;;;;4998417;28;20054;-75
2023/11/09 12:36:57;;;;;;;3.35;2.00;;;10.10;99.90;;;;;;4981629;28;20038;-75
2023/11/09 12:39:44;;;;;;;4.82;1.67;;;10.20;99.90;;;;;;4976003;28;20388;-76
2023/11/09 12:42:31;;;;;;;4.75;2.33;;;10.20;99.90;;;;;;4970523;28;20073;-75
2023/11/09 12:45:17;;;;;;;5.47;1.90;;;10.10;99.90;;;;;;4969711;28;20669;-75
2023/11/09 12:48:03;;;;;;;4.63;1.80;;;10.10;99.90;;;;;;4989259;28;20030;-75
2023/11/09 12:50:51;;;;;;;3.10;1.70;;;10.20;99.90;;;;;;4981732;28;20065;-76
2023/11/09 12:53:38;;;;;;;4.53;1.90;;;10.10;99.90;;;;;;4969818;28;20042;-75
2023/11/09 12:56:24;;;;;;;4.43;1.95;;;10.10;99.90;;;;;;4975348;28;20066;-75
2023/11/09 12:59:14;;;;;;;8.32;2.67;;;10.20;99.90;;;;;;4978729;28;20042;-76
2023/11/09 13:02:04;;;;;;;2.72;1.75;;;10.20;99.90;;;;;;4956099;28;20039;-76
2023/11/09 13:04:52;;;;;;;4.97;2.10;;;10.20;99.90;;;;;;4975389;28;20057;-75
2023/11/09 13:07:38;;;;;;;5.28;2.10;;;10.20;99.90;;;;;;4995660;28;20038;-76
2023/11/09 13:10:25;;;;;;;4.35;2.22;;;10.20;99.90;;;;;;4982040;28;20061;-76
2023/11/09 13:13:33;;;;;;;4.80;2.30;;;10.20;99.90;;;;;;4947817;28;20133;-75
2023/11/09 13:16:19;;;;;;;10.05;3.95;;;10.10;99.90;;;;;;4964863;28;20398;-75
2023/11/09 13:19:05;;;;;;;6.47;2.50;;;10.20;99.90;;;;;;4975101;28;20042;-75
2023/11/09 13:21:52;;;;;;;6.93;2.70;;;10.20;99.90;;;;;;4986772;28;20053;-75
2023/11/09 13:24:38;;;;;;;7.30;2.58;;;10.20;99.90;;;;;;4967361;28;20046;-75
2023/11/09 13:27:24;;;;;;;6.00;2.67;;;10.20;99.90;;;;;;4970841;28;20101;-76
2023/11/09 13:30:17;;;;;;;6.10;2.45;;;10.20;99.90;;;;;;4970648;28;20375;-76
2023/11/09 13:33:16;;;;;;;5.13;2.20;;;10.20;99.90;;;;;;4988102;28;20030;-75
2023/11/09 13:36:04;;;;;;;3.88;2.20;;;10.20;99.90;;;;;;4966253;28;20793;-75
2023/11/09 13:39:19;;;;;;;;;;;10.20;99.90;;;;;;4987554;28;20039;-75
2023/11/09 13:42:04;;;;;;;4.95;2.40;;;10.20;99.90;;;;;;4994653;28;19941;-75
2023/11/09 13:44:50;;;;;;;3.95;2.30;;;10.20;99.90;;;;;;4966900;28;20053;-75
2023/11/09 13:47:36;;;;;;;7.18;2.47;;;10.30;99.90;;;;;;4989226;28;20038;-75
2023/11/09 13:50:25;;;;;;;5.97;2.20;;;10.20;99.90;;;;;;4995107;28;20502;-76
2023/11/09 13:59:43;;;;;;;5.25;1.80;;;10.20;99.90;;;;;;4984769;28;20125;-75
2023/11/09 14:02:30;;;;;;;3.35;1.77;;;10.10;99.90;;;;;;4953515;28;20077;-76
2023/11/09 14:05:16;;;;;;;4.88;2.03;;;10.20;99.90;;;;;;4965846;28;20051;-75
2023/11/09 14:08:09;;;;;;;5.22;1.85;;;10.10;99.90;;;;;;4965556;28;20609;-76
2023/11/09 14:10:55;;;;;;;2.83;1.67;;;10.10;99.90;;;;;;4965082;28;20054;-75
2023/11/09 14:13:46;;;;;;;3.97;2.10;;;10.10;99.90;;;;;;4964144;28;20166;-76
2023/11/09 14:16:43;;;;;;;4.40;2.00;;;10.10;99.90;;;;;;4976755;28;20132;-76
2023/11/09 14:19:35;;;;;;;7.45;1.98;;;10.00;99.90;;;;;;4977810;28;20035;-75
2023/11/09 14:22:25;;;;;;;3.33;1.27;;;10.00;99.90;;;;;;4996771;28;20042;-75
2023/11/09 14:25:17;;;;;;;5.03;2.28;;;10.00;99.90;;;;;;4977055;28;20054;-75
2023/11/09 14:28:03;;;;;;;2.70;1.67;;;10.00;99.90;;;;;;4990098;28;20641;-75
2023/11/09 14:30:50;;;;;;;2.50;1.33;;;10.00;99.90;;;;;;5006413;28;20030;-76
2023/11/09 14:33:36;;;;;;;3.50;1.58;;;10.00;99.90;;;;;;4983794;28;20049;-76
2023/11/09 14:36:25;;;;;;;2.33;1.60;;;10.00;99.90;;;;;;4969755;28;20344;-75
2023/11/09 14:39:30;;;;;;;2.35;1.50;;;10.00;99.90;;;;;;5021677;28;20096;-75
2023/11/09 14:42:17;;;;;;;2.97;1.90;;;10.00;99.90;;;;;;4982405;28;20056;-76
2023/11/09 14:45:03;;;;;;;2.85;0.98;;;9.90;99.90;;;;;;4980782;28;20045;-75
2023/11/09 14:47:51;;;;;;;2.40;1.23;;;9.90;99.90;;;;;;4950921;28;20054;-75
2023/11/09 14:50:37;;;;;;;3.63;1.85;;;9.90;99.90;;;;;;4965292;28;20038;-75
2023/11/09 14:53:26;;;;;;;3.10;1.27;;;9.90;99.90;;;;;;4979882;28;20443;-76
2023/11/09 14:56:13;;;;;;;;;;;9.90;99.90;;;;;;4971428;28;20388;-76
2023/11/09 14:59:00;;;;;;;3.20;1.20;;;9.90;99.90;;;;;;5007950;28;19917;-76
2023/11/09 15:01:47;;;;;;;3.78;1.15;;;9.90;99.90;;;;;;4972778;28;20494;-75